sensor_id;sensor_type;location;lat;lon;timestamp;P1;durP1;ratioP1;P2;durP2;ratioP2
66353;SDS011;53150;48.296;16.452;2022-09-09T00:06:43;2.63;;;0.88;;
66353;SDS011;53150;48.296;16.452;2022-09-09T00:15:07;2.28;;;1.00;;
66353;SDS011;53150;48.296;16.452;2022-09-09T00:17:03;3.05;;;1.27;;
66353;SDS011;53150;48.296;16.452;2022-09-09T00:24:42;2.72;;;0.90;;
66353;SDS011;53150;48.296;16.452;2022-09-09T00:27:15;2.80;;;1.05;;
66353;SDS011;53150;48.296;16.452;2022-09-09T00:29:47;2.90;;;0.80;;
66353;SDS011;53150;48.296;16.452;2022-09-09T00:32:19;2.42;;;0.95;;
66353;SDS011;53150;48.296;16.452;2022-09-09T00:34:56;3.05;;;1.00;;
66353;SDS011;53150;48.296;16.452;2022-09-09T00:37:23;2.60;;;1.00;;
66353;SDS011;53150;48.296;16.452;2022-09-09T00:39:51;2.97;;;1.02;;
66353;SDS011;53150;48.296;16.452;2022-09-09T00:47:43;2.17;;;0.90;;
66353;SDS011;53150;48.296;16.452;2022-09-09T00:58:06;1.52;;;0.80;;
66353;SDS011;53150;48.296;16.452;2022-09-09T01:06:00;3.45;;;1.20;;
66353;SDS011;53150;48.296;16.452;2022-09-09T01:08:36;3.78;;;1.38;;
66353;SDS011;53150;48.296;16.452;2022-09-09T01:11:05;2.97;;;1.20;;
66353;SDS011;53150;48.296;16.452;2022-09-09T01:13:36;2.85;;;1.17;;
66353;SDS011;53150;48.296;16.452;2022-09-09T01:16:03;2.40;;;1.08;;
66353;SDS011;53150;48.296;16.452;2022-09-09T01:18:32;4.00;;;1.20;;
66353;SDS011;53150;48.296;16.452;2022-09-09T01:26:13;4.72;;;1.20;;
66353;SDS011;53150;48.296;16.452;2022-09-09T01:28:42;3.30;;;1.35;;
66353;SDS011;53150;48.296;16.452;2022-09-09T01:31:10;3.30;;;1.17;;
66353;SDS011;53150;48.296;16.452;2022-09-09T01:33:37;3.58;;;1.40;;
66353;SDS011;53150;48.296;16.452;2022-09-09T01:38:31;2.65;;;1.25;;
66353;SDS011;53150;48.296;16.452;2022-09-09T01:40:58;3.78;;;1.40;;
66353;SDS011;53150;48.296;16.452;2022-09-09T01:43:24;4.63;;;1.20;;
66353;SDS011;53150;48.296;16.452;2022-09-09T01:45:52;2.95;;;1.27;;
66353;SDS011;53150;48.296;16.452;2022-09-09T01:48:19;4.97;;;1.40;;
66353;SDS011;53150;48.296;16.452;2022-09-09T01:50:45;3.42;;;1.05;;
66353;SDS011;53150;48.296;16.452;2022-09-09T01:53:11;3.72;;;1.30;;
66353;SDS011;53150;48.296;16.452;2022-09-09T01:55:41;2.83;;;1.10;;
66353;SDS011;53150;48.296;16.452;2022-09-09T02:00:56;3.28;;;1.05;;
66353;SDS011;53150;48.296;16.452;2022-09-09T02:03:29;2.67;;;1.40;;
66353;SDS011;53150;48.296;16.452;2022-09-09T02:08:49;4.22;;;1.20;;
66353;SDS011;53150;48.296;16.452;2022-09-09T02:11:16;3.40;;;1.05;;
66353;SDS011;53150;48.296;16.452;2022-09-09T02:13:44;2.85;;;1.05;;
66353;SDS011;53150;48.296;16.452;2022-09-09T02:19:03;4.38;;;1.40;;
66353;SDS011;53150;48.296;16.452;2022-09-09T02:21:32;3.10;;;1.38;;
66353;SDS011;53150;48.296;16.452;2022-09-09T02:24:02;3.47;;;1.30;;
66353;SDS011;53150;48.296;16.452;2022-09-09T02:26:29;3.22;;;1.23;;
66353;SDS011;53150;48.296;16.452;2022-09-09T02:28:56;3.08;;;1.20;;
66353;SDS011;53150;48.296;16.452;2022-09-09T02:31:23;3.25;;;1.20;;
66353;SDS011;53150;48.296;16.452;2022-09-09T02:33:56;4.10;;;1.10;;
66353;SDS011;53150;48.296;16.452;2022-09-09T02:36:23;2.95;;;1.15;;
66353;SDS011;53150;48.296;16.452;2022-09-09T02:38:51;3.20;;;1.55;;
66353;SDS011;53150;48.296;16.452;2022-09-09T02:41:23;3.22;;;1.17;;
66353;SDS011;53150;48.296;16.452;2022-09-09T02:43:50;3.60;;;1.20;;
66353;SDS011;53150;48.296;16.452;2022-09-09T02:48:58;3.38;;;1.20;;
66353;SDS011;53150;48.296;16.452;2022-09-09T02:54:01;3.85;;;1.50;;
66353;SDS011;53150;48.296;16.452;2022-09-09T02:56:30;3.40;;;1.30;;
66353;SDS011;53150;48.296;16.452;2022-09-09T02:58:58;4.00;;;2.10;;
66353;SDS011;53150;48.296;16.452;2022-09-09T03:01:25;3.47;;;1.40;;
66353;SDS011;53150;48.296;16.452;2022-09-09T03:03:51;4.15;;;1.33;;
66353;SDS011;53150;48.296;16.452;2022-09-09T03:06:17;3.53;;;1.35;;
66353;SDS011;53150;48.296;16.452;2022-09-09T03:08:43;3.67;;;1.65;;
66353;SDS011;53150;48.296;16.452;2022-09-09T03:11:09;4.22;;;1.98;;
66353;SDS011;53150;48.296;16.452;2022-09-09T03:13:35;4.50;;;2.20;;
66353;SDS011;53150;48.296;16.452;2022-09-09T03:16:02;4.45;;;1.80;;
66353;SDS011;53150;48.296;16.452;2022-09-09T03:18:29;4.53;;;2.20;;
66353;SDS011;53150;48.296;16.452;2022-09-09T03:20:55;4.70;;;2.10;;
66353;SDS011;53150;48.296;16.452;2022-09-09T03:23:22;4.80;;;2.00;;
66353;SDS011;53150;48.296;16.452;2022-09-09T03:25:48;5.75;;;1.92;;
66353;SDS011;53150;48.296;16.452;2022-09-09T03:28:14;4.03;;;1.90;;
66353;SDS011;53150;48.296;16.452;2022-09-09T03:30:41;4.65;;;2.00;;
66353;SDS011;53150;48.296;16.452;2022-09-09T03:33:07;4.63;;;2.17;;
66353;SDS011;53150;48.296;16.452;2022-09-09T03:35:33;4.00;;;1.83;;
66353;SDS011;53150;48.296;16.452;2022-09-09T03:37:59;3.97;;;1.90;;
66353;SDS011;53150;48.296;16.452;2022-09-09T03:40:25;4.07;;;1.83;;
66353;SDS011;53150;48.296;16.452;2022-09-09T03:42:51;5.55;;;2.22;;
66353;SDS011;53150;48.296;16.452;2022-09-09T03:45:17;3.80;;;1.75;;
66353;SDS011;53150;48.296;16.452;2022-09-09T03:47:44;4.78;;;1.70;;
66353;SDS011;53150;48.296;16.452;2022-09-09T03:50:10;4.28;;;1.80;;
66353;SDS011;53150;48.296;16.452;2022-09-09T03:52:36;3.75;;;1.85;;
66353;SDS011;53150;48.296;16.452;2022-09-09T03:55:03;6.03;;;2.67;;
66353;SDS011;53150;48.296;16.452;2022-09-09T03:57:29;4.90;;;1.95;;
66353;SDS011;53150;48.296;16.452;2022-09-09T03:59:55;5.40;;;2.45;;
66353;SDS011;53150;48.296;16.452;2022-09-09T04:02:22;5.43;;;2.03;;
66353;SDS011;53150;48.296;16.452;2022-09-09T04:04:49;3.85;;;1.58;;
66353;SDS011;53150;48.296;16.452;2022-09-09T04:07:15;3.90;;;1.70;;
66353;SDS011;53150;48.296;16.452;2022-09-09T04:09:41;4.13;;;1.88;;
66353;SDS011;53150;48.296;16.452;2022-09-09T04:12:07;5.07;;;1.90;;
66353;SDS011;53150;48.296;16.452;2022-09-09T04:14:33;4.93;;;2.08;;
66353;SDS011;53150;48.296;16.452;2022-09-09T04:16:59;4.38;;;2.10;;
66353;SDS011;53150;48.296;16.452;2022-09-09T04:19:25;3.83;;;1.92;;
66353;SDS011;53150;48.296;16.452;2022-09-09T04:21:51;5.13;;;2.00;;
66353;SDS011;53150;48.296;16.452;2022-09-09T04:24:17;4.68;;;1.92;;
66353;SDS011;53150;48.296;16.452;2022-09-09T04:26:43;5.20;;;1.92;;
66353;SDS011;53150;48.296;16.452;2022-09-09T04:29:10;4.13;;;1.95;;
66353;SDS011;53150;48.296;16.452;2022-09-09T04:31:36;4.65;;;1.90;;
66353;SDS011;53150;48.296;16.452;2022-09-09T04:34:06;4.68;;;2.08;;
66353;SDS011;53150;48.296;16.452;2022-09-09T04:36:32;4.78;;;2.65;;
66353;SDS011;53150;48.296;16.452;2022-09-09T04:38:59;4.28;;;2.10;;
66353;SDS011;53150;48.296;16.452;2022-09-09T04:41:26;3.65;;;1.80;;
66353;SDS011;53150;48.296;16.452;2022-09-09T04:43:52;6.30;;;2.20;;
66353;SDS011;53150;48.296;16.452;2022-09-09T04:46:19;5.43;;;2.38;;
66353;SDS011;53150;48.296;16.452;2022-09-09T04:48:45;5.78;;;2.60;;
66353;SDS011;53150;48.296;16.452;2022-09-09T04:51:12;6.00;;;2.42;;
66353;SDS011;53150;48.296;16.452;2022-09-09T04:53:38;5.03;;;2.90;;
66353;SDS011;53150;48.296;16.452;2022-09-09T04:58:35;4.95;;;2.17;;
66353;SDS011;53150;48.296;16.452;2022-09-09T05:01:05;5.13;;;2.00;;
66353;SDS011;53150;48.296;16.452;2022-09-09T05:03:31;4.70;;;2.10;;
66353;SDS011;53150;48.296;16.452;2022-09-09T05:06:04;4.55;;;2.20;;
66353;SDS011;53150;48.296;16.452;2022-09-09T05:08:31;5.65;;;2.65;;
66353;SDS011;53150;48.296;16.452;2022-09-09T05:10:57;5.13;;;2.50;;
66353;SDS011;53150;48.296;16.452;2022-09-09T05:13:25;6.20;;;2.90;;
66353;SDS011;53150;48.296;16.452;2022-09-09T05:15:54;4.95;;;2.25;;
66353;SDS011;53150;48.296;16.452;2022-09-09T05:18:20;5.13;;;2.50;;
66353;SDS011;53150;48.296;16.452;2022-09-09T05:20:47;5.43;;;2.85;;
66353;SDS011;53150;48.296;16.452;2022-09-09T05:23:13;6.78;;;3.38;;
66353;SDS011;53150;48.296;16.452;2022-09-09T05:25:39;5.03;;;2.60;;
66353;SDS011;53150;48.296;16.452;2022-09-09T05:28:05;4.57;;;2.55;;
66353;SDS011;53150;48.296;16.452;2022-09-09T05:30:32;6.00;;;2.78;;
66353;SDS011;53150;48.296;16.452;2022-09-09T05:32:59;4.82;;;2.47;;
66353;SDS011;53150;48.296;16.452;2022-09-09T05:35:25;7.55;;;2.97;;
66353;SDS011;53150;48.296;16.452;2022-09-09T05:37:51;4.97;;;2.42;;
66353;SDS011;53150;48.296;16.452;2022-09-09T05:40:17;8.60;;;4.22;;
66353;SDS011;53150;48.296;16.452;2022-09-09T05:42:43;6.53;;;4.28;;
66353;SDS011;53150;48.296;16.452;2022-09-09T05:45:09;7.13;;;4.40;;
66353;SDS011;53150;48.296;16.452;2022-09-09T05:47:35;6.65;;;4.07;;
66353;SDS011;53150;48.296;16.452;2022-09-09T05:50:02;7.28;;;3.35;;
66353;SDS011;53150;48.296;16.452;2022-09-09T05:52:28;6.53;;;2.92;;
66353;SDS011;53150;48.296;16.452;2022-09-09T05:54:55;6.30;;;3.10;;
66353;SDS011;53150;48.296;16.452;2022-09-09T05:57:22;5.75;;;3.10;;
66353;SDS011;53150;48.296;16.452;2022-09-09T05:59:48;5.90;;;3.15;;
66353;SDS011;53150;48.296;16.452;2022-09-09T06:02:14;8.75;;;3.90;;
66353;SDS011;53150;48.296;16.452;2022-09-09T06:04:41;8.07;;;3.72;;
66353;SDS011;53150;48.296;16.452;2022-09-09T06:07:07;6.10;;;3.15;;
66353;SDS011;53150;48.296;16.452;2022-09-09T06:09:33;7.65;;;3.42;;
66353;SDS011;53150;48.296;16.452;2022-09-09T06:11:59;9.93;;;4.35;;
66353;SDS011;53150;48.296;16.452;2022-09-09T06:14:25;6.60;;;3.38;;
66353;SDS011;53150;48.296;16.452;2022-09-09T06:16:52;9.57;;;3.78;;
66353;SDS011;53150;48.296;16.452;2022-09-09T06:19:18;7.55;;;3.13;;
66353;SDS011;53150;48.296;16.452;2022-09-09T06:21:45;7.63;;;3.30;;
66353;SDS011;53150;48.296;16.452;2022-09-09T06:24:12;6.63;;;3.47;;
66353;SDS011;53150;48.296;16.452;2022-09-09T06:26:42;5.90;;;3.42;;
66353;SDS011;53150;48.296;16.452;2022-09-09T06:29:08;6.75;;;4.00;;
66353;SDS011;53150;48.296;16.452;2022-09-09T06:31:35;9.80;;;3.95;;
66353;SDS011;53150;48.296;16.452;2022-09-09T06:34:02;7.85;;;3.53;;
66353;SDS011;53150;48.296;16.452;2022-09-09T06:36:30;5.65;;;3.50;;
66353;SDS011;53150;48.296;16.452;2022-09-09T06:38:57;6.20;;;3.80;;
66353;SDS011;53150;48.296;16.452;2022-09-09T06:41:24;9.77;;;4.10;;
66353;SDS011;53150;48.296;16.452;2022-09-09T06:43:51;6.63;;;3.80;;
66353;SDS011;53150;48.296;16.452;2022-09-09T06:46:18;7.88;;;3.75;;
66353;SDS011;53150;48.296;16.452;2022-09-09T06:48:47;5.57;;;3.25;;
66353;SDS011;53150;48.296;16.452;2022-09-09T06:51:14;6.40;;;3.50;;
66353;SDS011;53150;48.296;16.452;2022-09-09T06:53:42;8.13;;;4.28;;
66353;SDS011;53150;48.296;16.452;2022-09-09T06:58:39;6.00;;;3.78;;
66353;SDS011;53150;48.296;16.452;2022-09-09T07:01:12;7.03;;;3.53;;
66353;SDS011;53150;48.296;16.452;2022-09-09T07:03:38;5.72;;;2.92;;
66353;SDS011;53150;48.296;16.452;2022-09-09T07:06:05;5.78;;;3.05;;
66353;SDS011;53150;48.296;16.452;2022-09-09T07:08:32;5.68;;;2.80;;
66353;SDS011;53150;48.296;16.452;2022-09-09T07:11:02;5.95;;;2.72;;
66353;SDS011;53150;48.296;16.452;2022-09-09T07:13:30;4.90;;;3.10;;
66353;SDS011;53150;48.296;16.452;2022-09-09T07:16:02;5.30;;;2.95;;
66353;SDS011;53150;48.296;16.452;2022-09-09T07:18:28;5.55;;;2.33;;
66353;SDS011;53150;48.296;16.452;2022-09-09T07:20:55;6.82;;;3.20;;
66353;SDS011;53150;48.296;16.452;2022-09-09T07:23:22;5.25;;;2.63;;
66353;SDS011;53150;48.296;16.452;2022-09-09T07:25:48;5.55;;;2.30;;
66353;SDS011;53150;48.296;16.452;2022-09-09T07:28:15;4.32;;;2.00;;
66353;SDS011;53150;48.296;16.452;2022-09-09T07:30:41;4.88;;;2.10;;
66353;SDS011;53150;48.296;16.452;2022-09-09T07:33:08;3.63;;;1.45;;
66353;SDS011;53150;48.296;16.452;2022-09-09T07:35:35;4.13;;;1.67;;
66353;SDS011;53150;48.296;16.452;2022-09-09T07:38:02;3.63;;;1.48;;
66353;SDS011;53150;48.296;16.452;2022-09-09T07:40:31;3.50;;;1.10;;
66353;SDS011;53150;48.296;16.452;2022-09-09T07:42:57;2.83;;;1.10;;
66353;SDS011;53150;48.296;16.452;2022-09-09T07:45:24;2.83;;;1.38;;
66353;SDS011;53150;48.296;16.452;2022-09-09T07:47:53;4.00;;;1.75;;
66353;SDS011;53150;48.296;16.452;2022-09-09T07:50:22;4.15;;;1.60;;
66353;SDS011;53150;48.296;16.452;2022-09-09T07:52:48;3.50;;;1.58;;
66353;SDS011;53150;48.296;16.452;2022-09-09T07:55:14;4.25;;;1.48;;
66353;SDS011;53150;48.296;16.452;2022-09-09T07:57:40;3.67;;;1.60;;
66353;SDS011;53150;48.296;16.452;2022-09-09T08:00:07;3.42;;;1.42;;
66353;SDS011;53150;48.296;16.452;2022-09-09T08:02:33;4.00;;;1.75;;
66353;SDS011;53150;48.296;16.452;2022-09-09T08:04:59;4.97;;;1.70;;
66353;SDS011;53150;48.296;16.452;2022-09-09T08:07:25;4.28;;;1.63;;
66353;SDS011;53150;48.296;16.452;2022-09-09T08:09:53;4.25;;;1.52;;
66353;SDS011;53150;48.296;16.452;2022-09-09T08:12:20;3.83;;;1.70;;
66353;SDS011;53150;48.296;16.452;2022-09-09T08:14:47;3.97;;;1.42;;
66353;SDS011;53150;48.296;16.452;2022-09-09T08:17:13;3.25;;;1.33;;
66353;SDS011;53150;48.296;16.452;2022-09-09T08:19:39;3.45;;;1.20;;
66353;SDS011;53150;48.296;16.452;2022-09-09T08:22:05;3.42;;;1.20;;
66353;SDS011;53150;48.296;16.452;2022-09-09T08:24:32;3.80;;;1.23;;
66353;SDS011;53150;48.296;16.452;2022-09-09T08:26:59;4.80;;;1.33;;
66353;SDS011;53150;48.296;16.452;2022-09-09T08:29:25;4.60;;;1.73;;
66353;SDS011;53150;48.296;16.452;2022-09-09T08:31:53;4.82;;;1.90;;
66353;SDS011;53150;48.296;16.452;2022-09-09T08:34:20;7.55;;;2.70;;
66353;SDS011;53150;48.296;16.452;2022-09-09T08:36:46;5.97;;;2.92;;
66353;SDS011;53150;48.296;16.452;2022-09-09T08:39:14;6.63;;;3.13;;
66353;SDS011;53150;48.296;16.452;2022-09-09T08:52:28;7.50;;;4.78;;
66353;SDS011;53150;48.296;16.452;2022-09-09T08:54:56;10.45;;;5.32;;
66353;SDS011;53150;48.296;16.452;2022-09-09T08:57:25;8.80;;;4.57;;
66353;SDS011;53150;48.296;16.452;2022-09-09T08:59:52;7.05;;;4.70;;
66353;SDS011;53150;48.296;16.452;2022-09-09T09:05:23;5.63;;;3.58;;
66353;SDS011;53150;48.296;16.452;2022-09-09T09:08:00;6.50;;;3.42;;
66353;SDS011;53150;48.296;16.452;2022-09-09T09:12:55;6.28;;;3.67;;
66353;SDS011;53150;48.296;16.452;2022-09-09T09:15:25;6.78;;;3.40;;
66353;SDS011;53150;48.296;16.452;2022-09-09T09:17:51;5.45;;;3.20;;
66353;SDS011;53150;48.296;16.452;2022-09-09T09:20:18;6.00;;;3.50;;
66353;SDS011;53150;48.296;16.452;2022-09-09T09:22:50;9.75;;;3.45;;
66353;SDS011;53150;48.296;16.452;2022-09-09T09:30:14;5.97;;;2.92;;
66353;SDS011;53150;48.296;16.452;2022-09-09T09:32:44;6.63;;;2.90;;
66353;SDS011;53150;48.296;16.452;2022-09-09T09:35:13;6.03;;;2.80;;
66353;SDS011;53150;48.296;16.452;2022-09-09T09:37:40;5.00;;;2.50;;
66353;SDS011;53150;48.296;16.452;2022-09-09T09:40:14;3.90;;;1.70;;
66353;SDS011;53150;48.296;16.452;2022-09-09T09:46:01;4.55;;;1.92;;
66353;SDS011;53150;48.296;16.452;2022-09-09T09:48:03;3.42;;;1.50;;
66353;SDS011;53150;48.296;16.452;2022-09-09T09:50:29;6.50;;;2.00;;
66353;SDS011;53150;48.296;16.452;2022-09-09T09:52:57;4.60;;;2.20;;
66353;SDS011;53150;48.296;16.452;2022-09-09T09:55:24;5.47;;;2.20;;
66353;SDS011;53150;48.296;16.452;2022-09-09T09:57:50;6.28;;;2.50;;
66353;SDS011;53150;48.296;16.452;2022-09-09T10:02:45;3.58;;;1.55;;
66353;SDS011;53150;48.296;16.452;2022-09-09T10:07:38;7.00;;;4.00;;
66353;SDS011;53150;48.296;16.452;2022-09-09T10:10:04;3.65;;;1.40;;
66353;SDS011;53150;48.296;16.452;2022-09-09T10:17:48;3.60;;;1.30;;
66353;SDS011;53150;48.296;16.452;2022-09-09T10:22:47;2.45;;;0.98;;
66353;SDS011;53150;48.296;16.452;2022-09-09T10:33:19;3.17;;;1.20;;
66353;SDS011;53150;48.296;16.452;2022-09-09T10:40:43;3.08;;;1.10;;
66353;SDS011;53150;48.296;16.452;2022-09-09T10:46:09;3.78;;;1.25;;
66353;SDS011;53150;48.296;16.452;2022-09-09T10:56:20;4.68;;;1.27;;
66353;SDS011;53150;48.296;16.452;2022-09-09T10:58:52;2.67;;;1.02;;
66353;SDS011;53150;48.296;16.452;2022-09-09T11:04:19;3.22;;;1.00;;
66353;SDS011;53150;48.296;16.452;2022-09-09T11:06:48;3.70;;;1.10;;
66353;SDS011;53150;48.296;16.452;2022-09-09T11:09:18;2.20;;;0.90;;
66353;SDS011;53150;48.296;16.452;2022-09-09T11:11:47;3.20;;;1.10;;
66353;SDS011;53150;48.296;16.452;2022-09-09T11:14:18;3.17;;;0.90;;
66353;SDS011;53150;48.296;16.452;2022-09-09T11:17:02;4.03;;;0.90;;
66353;SDS011;53150;48.296;16.452;2022-09-09T11:21:59;11.02;;;1.83;;
66353;SDS011;53150;48.296;16.452;2022-09-09T11:24:40;2.63;;;1.00;;
66353;SDS011;53150;48.296;16.452;2022-09-09T11:27:13;3.13;;;0.85;;
66353;SDS011;53150;48.296;16.452;2022-09-09T11:29:44;2.33;;;0.90;;
66353;SDS011;53150;48.296;16.452;2022-09-09T11:35:12;2.13;;;0.80;;
66353;SDS011;53150;48.296;16.452;2022-09-09T11:40:24;3.10;;;1.02;;
66353;SDS011;53150;48.296;16.452;2022-09-09T11:43:02;3.13;;;1.15;;
66353;SDS011;53150;48.296;16.452;2022-09-09T11:45:29;3.47;;;1.10;;
66353;SDS011;53150;48.296;16.452;2022-09-09T11:47:56;3.10;;;1.00;;
66353;SDS011;53150;48.296;16.452;2022-09-09T11:52:48;2.63;;;1.00;;
66353;SDS011;53150;48.296;16.452;2022-09-09T11:57:59;4.25;;;1.75;;
66353;SDS011;53150;48.296;16.452;2022-09-09T12:00:44;3.00;;;1.30;;
66353;SDS011;53150;48.296;16.452;2022-09-09T12:05:58;3.13;;;1.35;;
66353;SDS011;53150;48.296;16.452;2022-09-09T12:08:28;3.00;;;1.10;;
66353;SDS011;53150;48.296;16.452;2022-09-09T12:10:55;3.30;;;1.23;;
66353;SDS011;53150;48.296;16.452;2022-09-09T12:13:23;2.10;;;1.00;;
66353;SDS011;53150;48.296;16.452;2022-09-09T12:15:50;3.17;;;1.27;;
66353;SDS011;53150;48.296;16.452;2022-09-09T12:18:22;2.80;;;1.15;;
66353;SDS011;53150;48.296;16.452;2022-09-09T12:20:54;2.40;;;1.00;;
66353;SDS011;53150;48.296;16.452;2022-09-09T12:26:20;2.97;;;1.35;;
66353;SDS011;53150;48.296;16.452;2022-09-09T12:31:17;2.58;;;1.00;;
66353;SDS011;53150;48.296;16.452;2022-09-09T12:33:47;2.60;;;1.00;;
66353;SDS011;53150;48.296;16.452;2022-09-09T12:36:24;3.90;;;1.00;;
66353;SDS011;53150;48.296;16.452;2022-09-09T12:38:51;2.00;;;0.90;;
66353;SDS011;53150;48.296;16.452;2022-09-09T12:41:26;2.08;;;0.85;;
66353;SDS011;53150;48.296;16.452;2022-09-09T12:44:04;2.47;;;0.95;;
66353;SDS011;53150;48.296;16.452;2022-09-09T12:49:01;3.92;;;0.95;;
66353;SDS011;53150;48.296;16.452;2022-09-09T12:51:28;2.10;;;0.90;;
66353;SDS011;53150;48.296;16.452;2022-09-09T12:53:55;2.65;;;0.90;;
66353;SDS011;53150;48.296;16.452;2022-09-09T12:56:22;2.55;;;1.10;;
66353;SDS011;53150;48.296;16.452;2022-09-09T12:58:51;2.92;;;1.02;;
66353;SDS011;53150;48.296;16.452;2022-09-09T13:01:25;2.53;;;1.00;;
66353;SDS011;53150;48.296;16.452;2022-09-09T13:03:52;2.85;;;0.80;;
66353;SDS011;53150;48.296;16.452;2022-09-09T13:06:20;4.10;;;1.20;;
66353;SDS011;53150;48.296;16.452;2022-09-09T13:08:47;3.40;;;1.52;;
66353;SDS011;53150;48.296;16.452;2022-09-09T13:11:14;2.90;;;1.10;;
66353;SDS011;53150;48.296;16.452;2022-09-09T13:13:42;3.03;;;1.02;;
66353;SDS011;53150;48.296;16.452;2022-09-09T13:16:19;2.75;;;0.98;;
66353;SDS011;53150;48.296;16.452;2022-09-09T13:18:46;3.67;;;1.02;;
66353;SDS011;53150;48.296;16.452;2022-09-09T13:21:13;2.50;;;1.00;;
66353;SDS011;53150;48.296;16.452;2022-09-09T13:23:40;2.78;;;1.10;;
66353;SDS011;53150;48.296;16.452;2022-09-09T13:26:19;2.80;;;1.10;;
66353;SDS011;53150;48.296;16.452;2022-09-09T13:28:49;2.97;;;0.98;;
66353;SDS011;53150;48.296;16.452;2022-09-09T13:31:22;2.15;;;1.00;;
66353;SDS011;53150;48.296;16.452;2022-09-09T13:33:49;2.63;;;0.98;;
66353;SDS011;53150;48.296;16.452;2022-09-09T13:36:15;3.40;;;1.10;;
66353;SDS011;53150;48.296;16.452;2022-09-09T13:41:21;2.45;;;1.10;;
66353;SDS011;53150;48.296;16.452;2022-09-09T13:43:48;3.28;;;1.05;;
66353;SDS011;53150;48.296;16.452;2022-09-09T13:46:23;2.80;;;1.20;;
66353;SDS011;53150;48.296;16.452;2022-09-09T13:49:32;2.80;;;1.10;;
66353;SDS011;53150;48.296;16.452;2022-09-09T13:51:47;3.22;;;1.30;;
66353;SDS011;53150;48.296;16.452;2022-09-09T13:54:16;3.53;;;1.10;;
66353;SDS011;53150;48.296;16.452;2022-09-09T13:56:43;3.55;;;1.70;;
66353;SDS011;53150;48.296;16.452;2022-09-09T13:59:13;3.25;;;1.10;;
66353;SDS011;53150;48.296;16.452;2022-09-09T14:01:40;3.17;;;1.23;;
66353;SDS011;53150;48.296;16.452;2022-09-09T14:04:06;2.65;;;1.08;;
66353;SDS011;53150;48.296;16.452;2022-09-09T14:06:32;2.65;;;1.10;;
66353;SDS011;53150;48.296;16.452;2022-09-09T14:09:01;2.92;;;0.98;;
66353;SDS011;53150;48.296;16.452;2022-09-09T14:11:27;3.58;;;1.33;;
66353;SDS011;53150;48.296;16.452;2022-09-09T14:13:53;3.53;;;1.10;;
66353;SDS011;53150;48.296;16.452;2022-09-09T14:16:19;3.53;;;1.02;;
66353;SDS011;53150;48.296;16.452;2022-09-09T14:18:46;2.67;;;1.10;;
66353;SDS011;53150;48.296;16.452;2022-09-09T14:21:12;2.42;;;1.10;;
66353;SDS011;53150;48.296;16.452;2022-09-09T14:23:38;3.35;;;1.73;;
66353;SDS011;53150;48.296;16.452;2022-09-09T14:26:05;3.25;;;1.08;;
66353;SDS011;53150;48.296;16.452;2022-09-09T14:28:31;4.05;;;1.30;;
66353;SDS011;53150;48.296;16.452;2022-09-09T14:31:01;2.65;;;1.17;;
66353;SDS011;53150;48.296;16.452;2022-09-09T14:33:28;2.67;;;1.00;;
66353;SDS011;53150;48.296;16.452;2022-09-09T14:36:02;3.35;;;1.10;;
66353;SDS011;53150;48.296;16.452;2022-09-09T14:38:29;2.58;;;1.02;;
66353;SDS011;53150;48.296;16.452;2022-09-09T14:40:55;3.67;;;1.25;;
66353;SDS011;53150;48.296;16.452;2022-09-09T14:43:22;3.00;;;1.15;;
66353;SDS011;53150;48.296;16.452;2022-09-09T14:45:48;3.40;;;1.40;;
66353;SDS011;53150;48.296;16.452;2022-09-09T14:48:16;4.00;;;1.50;;
66353;SDS011;53150;48.296;16.452;2022-09-09T14:50:42;4.40;;;2.00;;
66353;SDS011;53150;48.296;16.452;2022-09-09T14:53:08;5.90;;;1.83;;
66353;SDS011;53150;48.296;16.452;2022-09-09T14:55:35;2.70;;;1.30;;
66353;SDS011;53150;48.296;16.452;2022-09-09T14:58:01;4.00;;;1.60;;
66353;SDS011;53150;48.296;16.452;2022-09-09T15:00:27;3.25;;;1.50;;
66353;SDS011;53150;48.296;16.452;2022-09-09T15:02:53;4.38;;;1.42;;
66353;SDS011;53150;48.296;16.452;2022-09-09T15:05:19;4.30;;;1.65;;
66353;SDS011;53150;48.296;16.452;2022-09-09T15:07:45;3.95;;;1.60;;
66353;SDS011;53150;48.296;16.452;2022-09-09T15:10:13;3.60;;;1.70;;
66353;SDS011;53150;48.296;16.452;2022-09-09T15:12:39;4.05;;;2.03;;
66353;SDS011;53150;48.296;16.452;2022-09-09T15:15:06;4.13;;;1.80;;
66353;SDS011;53150;48.296;16.452;2022-09-09T15:17:33;3.33;;;1.70;;
66353;SDS011;53150;48.296;16.452;2022-09-09T15:19:59;3.75;;;1.30;;
66353;SDS011;53150;48.296;16.452;2022-09-09T15:22:25;3.80;;;1.52;;
66353;SDS011;53150;48.296;16.452;2022-09-09T15:24:51;3.90;;;1.77;;
66353;SDS011;53150;48.296;16.452;2022-09-09T15:27:17;4.05;;;1.85;;
66353;SDS011;53150;48.296;16.452;2022-09-09T15:29:43;3.28;;;1.45;;
66353;SDS011;53150;48.296;16.452;2022-09-09T15:32:09;4.38;;;1.75;;
66353;SDS011;53150;48.296;16.452;2022-09-09T15:34:35;4.47;;;1.70;;
66353;SDS011;53150;48.296;16.452;2022-09-09T15:37:01;3.85;;;1.85;;
66353;SDS011;53150;48.296;16.452;2022-09-09T15:39:27;4.40;;;1.65;;
66353;SDS011;53150;48.296;16.452;2022-09-09T15:41:53;3.65;;;1.52;;
66353;SDS011;53150;48.296;16.452;2022-09-09T15:44:19;4.00;;;2.00;;
66353;SDS011;53150;48.296;16.452;2022-09-09T15:46:48;3.00;;;1.45;;
66353;SDS011;53150;48.296;16.452;2022-09-09T15:49:19;4.00;;;1.42;;
66353;SDS011;53150;48.296;16.452;2022-09-09T15:51:47;3.87;;;1.60;;
66353;SDS011;53150;48.296;16.452;2022-09-09T15:54:17;3.97;;;1.70;;
66353;SDS011;53150;48.296;16.452;2022-09-09T15:56:43;4.80;;;1.73;;
66353;SDS011;53150;48.296;16.452;2022-09-09T15:59:10;3.58;;;1.70;;
66353;SDS011;53150;48.296;16.452;2022-09-09T16:01:36;4.15;;;1.73;;
66353;SDS011;53150;48.296;16.452;2022-09-09T16:04:04;5.10;;;1.60;;
66353;SDS011;53150;48.296;16.452;2022-09-09T16:06:31;5.07;;;1.80;;
66353;SDS011;53150;48.296;16.452;2022-09-09T16:08:58;3.80;;;2.05;;
66353;SDS011;53150;48.296;16.452;2022-09-09T16:11:31;5.97;;;1.90;;
66353;SDS011;53150;48.296;16.452;2022-09-09T16:13:57;3.65;;;1.90;;
66353;SDS011;53150;48.296;16.452;2022-09-09T16:16:24;3.90;;;1.90;;
66353;SDS011;53150;48.296;16.452;2022-09-09T16:19:00;3.90;;;1.90;;
66353;SDS011;53150;48.296;16.452;2022-09-09T16:21:28;4.10;;;2.20;;
66353;SDS011;53150;48.296;16.452;2022-09-09T16:23:56;3.55;;;1.70;;
66353;SDS011;53150;48.296;16.452;2022-09-09T16:26:24;4.25;;;1.60;;
66353;SDS011;53150;48.296;16.452;2022-09-09T16:28:50;4.15;;;2.10;;
66353;SDS011;53150;48.296;16.452;2022-09-09T16:31:17;3.75;;;1.70;;
66353;SDS011;53150;48.296;16.452;2022-09-09T16:33:44;3.47;;;1.70;;
66353;SDS011;53150;48.296;16.452;2022-09-09T16:36:12;4.18;;;1.77;;
66353;SDS011;53150;48.296;16.452;2022-09-09T16:38:39;3.17;;;1.50;;
66353;SDS011;53150;48.296;16.452;2022-09-09T16:41:05;6.72;;;2.00;;
66353;SDS011;53150;48.296;16.452;2022-09-09T16:43:32;4.45;;;2.00;;
66353;SDS011;53150;48.296;16.452;2022-09-09T16:45:59;6.05;;;1.70;;
66353;SDS011;53150;48.296;16.452;2022-09-09T16:48:32;4.03;;;1.70;;
66353;SDS011;53150;48.296;16.452;2022-09-09T16:51:05;4.38;;;1.70;;
66353;SDS011;53150;48.296;16.452;2022-09-09T16:53:33;3.88;;;1.80;;
66353;SDS011;53150;48.296;16.452;2022-09-09T16:56:32;4.53;;;2.22;;
66353;SDS011;53150;48.296;16.452;2022-09-09T16:58:53;4.40;;;2.00;;
66353;SDS011;53150;48.296;16.452;2022-09-09T17:01:20;3.72;;;1.75;;
66353;SDS011;53150;48.296;16.452;2022-09-09T17:03:46;5.03;;;2.30;;
66353;SDS011;53150;48.296;16.452;2022-09-09T17:06:13;4.50;;;2.35;;
66353;SDS011;53150;48.296;16.452;2022-09-09T17:08:39;4.22;;;2.00;;